sensor_id;sensor_type;location;lat;lon;timestamp;pressure;altitude;pressure_sealevel;temperature;humidity
63907;BME280;50075;49.484;11.238;2022-11-13T00:00:47;99060.91;;;7.96;100.00
63907;BME280;50075;49.484;11.238;2022-11-13T00:03:12;99063.25;;;8.16;100.00
63907;BME280;50075;49.484;11.238;2022-11-13T00:05:37;99056.03;;;8.34;100.00
63907;BME280;50075;49.484;11.238;2022-11-13T00:08:03;99046.50;;;8.34;100.00
63907;BME280;50075;49.484;11.238;2022-11-13T00:10:28;99046.16;;;7.98;100.00
63907;BME280;50075;49.484;11.238;2022-11-13T00:12:54;99050.50;;;7.98;100.00
63907;BME280;50075;49.484;11.238;2022-11-13T00:15:20;99049.31;;;8.20;100.00
63907;BME280;50075;49.484;11.238;2022-11-13T00:17:45;99049.69;;;8.55;100.00
63907;BME280;50075;49.484;11.238;2022-11-13T00:20:11;99051.50;;;8.51;100.00
63907;BME280;50075;49.484;11.238;2022-11-13T00:22:36;99055.94;;;8.40;100.00
63907;BME280;50075;49.484;11.238;2022-11-13T00:25:02;99046.19;;;7.97;100.00
63907;BME280;50075;49.484;11.238;2022-11-13T00:27:29;99050.75;;;8.40;100.00
63907;BME280;50075;49.484;11.238;2022-11-13T00:29:55;99048.81;;;8.54;100.00
63907;BME280;50075;49.484;11.238;2022-11-13T00:32:20;99052.91;;;8.10;100.00
63907;BME280;50075;49.484;11.238;2022-11-13T00:34:45;99047.81;;;8.05;100.00
63907;BME280;50075;49.484;11.238;2022-11-13T00:37:11;99046.66;;;7.60;100.00
63907;BME280;50075;49.484;11.238;2022-11-13T00:39:36;99045.53;;;8.40;100.00
63907;BME280;50075;49.484;11.238;2022-11-13T00:42:01;99040.34;;;8.40;100.00
63907;BME280;50075;49.484;11.238;2022-11-13T00:44:27;99038.25;;;7.39;100.00
63907;BME280;50075;49.484;11.238;2022-11-13T00:46:52;99031.09;;;7.57;100.00
63907;BME280;50075;49.484;11.238;2022-11-13T00:49:17;99041.22;;;7.78;100.00
63907;BME280;50075;49.484;11.238;2022-11-13T00:51:43;99042.72;;;7.28;100.00
63907;BME280;50075;49.484;11.238;2022-11-13T00:54:08;99034.84;;;8.01;100.00
63907;BME280;50075;49.484;11.238;2022-11-13T00:56:33;99039.31;;;7.93;100.00
63907;BME280;50075;49.484;11.238;2022-11-13T00:58:59;99046.06;;;7.36;100.00
63907;BME280;50075;49.484;11.238;2022-11-13T01:01:24;99045.13;;;7.45;100.00
63907;BME280;50075;49.484;11.238;2022-11-13T01:03:49;99034.31;;;7.01;100.00
63907;BME280;50075;49.484;11.238;2022-11-13T01:06:25;99036.75;;;7.89;100.00
63907;BME280;50075;49.484;11.238;2022-11-13T01:08:56;99036.16;;;6.90;100.00
63907;BME280;50075;49.484;11.238;2022-11-13T01:11:24;99027.66;;;7.58;100.00
63907;BME280;50075;49.484;11.238;2022-11-13T01:13:50;99020.09;;;6.51;100.00
63907;BME280;50075;49.484;11.238;2022-11-13T01:16:18;99022.38;;;6.88;100.00
63907;BME280;50075;49.484;11.238;2022-11-13T01:18:44;99023.19;;;6.93;100.00
63907;BME280;50075;49.484;11.238;2022-11-13T01:21:17;99016.25;;;6.92;100.00
63907;BME280;50075;49.484;11.238;2022-11-13T01:23:42;99018.94;;;6.86;100.00
63907;BME280;50075;49.484;11.238;2022-11-13T01:26:23;99019.53;;;7.09;100.00
63907;BME280;50075;49.484;11.238;2022-11-13T01:28:49;99012.31;;;7.39;100.00
63907;BME280;50075;49.484;11.238;2022-11-13T01:31:18;99011.41;;;6.58;100.00
63907;BME280;50075;49.484;11.238;2022-11-13T01:33:44;99012.66;;;7.04;100.00
63907;BME280;50075;49.484;11.238;2022-11-13T01:36:22;99012.84;;;7.64;100.00
63907;BME280;50075;49.484;11.238;2022-11-13T01:38:48;99005.81;;;7.72;100.00
63907;BME280;50075;49.484;11.238;2022-11-13T01:41:26;99004.25;;;7.59;100.00
63907;BME280;50075;49.484;11.238;2022-11-13T01:43:52;99001.56;;;7.67;100.00
63907;BME280;50075;49.484;11.238;2022-11-13T01:49:46;98984.38;;;7.55;100.00
63907;BME280;50075;49.484;11.238;2022-11-13T01:51:51;98979.94;;;6.93;100.00
63907;BME280;50075;49.484;11.238;2022-11-13T01:54:22;98972.91;;;7.03;100.00
63907;BME280;50075;49.484;11.238;2022-11-13T01:56:50;98970.31;;;7.05;100.00
63907;BME280;50075;49.484;11.238;2022-11-13T01:59:22;98970.81;;;7.33;100.00
63907;BME280;50075;49.484;11.238;2022-11-13T02:01:48;98967.81;;;6.94;100.00
63907;BME280;50075;49.484;11.238;2022-11-13T02:04:14;98962.47;;;6.20;100.00
63907;BME280;50075;49.484;11.238;2022-11-13T02:06:52;98961.72;;;6.98;100.00
63907;BME280;50075;49.484;11.238;2022-11-13T02:09:21;98956.47;;;7.04;100.00
63907;BME280;50075;49.484;11.238;2022-11-13T02:11:48;98955.69;;;6.96;100.00
63907;BME280;50075;49.484;11.238;2022-11-13T02:14:14;98940.97;;;6.98;100.00
63907;BME280;50075;49.484;11.238;2022-11-13T02:16:42;98942.41;;;7.22;100.00
63907;BME280;50075;49.484;11.238;2022-11-13T02:19:25;98934.34;;;7.45;100.00
63907;BME280;50075;49.484;11.238;2022-11-13T02:24:29;98927.78;;;7.17;100.00
63907;BME280;50075;49.484;11.238;2022-11-13T02:27:00;98920.59;;;6.64;100.00
63907;BME280;50075;49.484;11.238;2022-11-13T02:29:26;98914.28;;;6.87;100.00
63907;BME280;50075;49.484;11.238;2022-11-13T02:31:51;98914.75;;;6.44;100.00
63907;BME280;50075;49.484;11.238;2022-11-13T02:34:16;98918.44;;;7.00;100.00
63907;BME280;50075;49.484;11.238;2022-11-13T02:36:42;98905.44;;;7.06;100.00
63907;BME280;50075;49.484;11.238;2022-11-13T02:39:10;98913.16;;;7.09;100.00
63907;BME280;50075;49.484;11.238;2022-11-13T02:41:36;98900.28;;;7.02;100.00
63907;BME280;50075;49.484;11.238;2022-11-13T02:44:04;98909.81;;;7.01;100.00
63907;BME280;50075;49.484;11.238;2022-11-13T02:46:29;98908.94;;;7.02;100.00
63907;BME280;50075;49.484;11.238;2022-11-13T02:48:54;98904.41;;;7.18;100.00
63907;BME280;50075;49.484;11.238;2022-11-13T02:51:20;98890.47;;;7.27;100.00
63907;BME280;50075;49.484;11.238;2022-11-13T02:53:45;98894.53;;;7.46;100.00
63907;BME280;50075;49.484;11.238;2022-11-13T02:56:10;98890.59;;;7.16;100.00
63907;BME280;50075;49.484;11.238;2022-11-13T02:58:36;98889.50;;;7.34;100.00
63907;BME280;50075;49.484;11.238;2022-11-13T03:01:02;98889.41;;;7.40;100.00
63907;BME280;50075;49.484;11.238;2022-11-13T03:03:28;98882.41;;;7.45;100.00
63907;BME280;50075;49.484;11.238;2022-11-13T03:05:53;98879.69;;;7.55;100.00
63907;BME280;50075;49.484;11.238;2022-11-13T03:08:19;98878.00;;;7.53;100.00
63907;BME280;50075;49.484;11.238;2022-11-13T03:10:46;98878.47;;;7.17;100.00
63907;BME280;50075;49.484;11.238;2022-11-13T03:13:11;98878.28;;;7.33;100.00
63907;BME280;50075;49.484;11.238;2022-11-13T03:15:36;98873.78;;;7.43;100.00
63907;BME280;50075;49.484;11.238;2022-11-13T03:18:06;98869.81;;;7.78;100.00
63907;BME280;50075;49.484;11.238;2022-11-13T03:20:34;98875.41;;;7.53;100.00
63907;BME280;50075;49.484;11.238;2022-11-13T03:23:00;98862.16;;;7.69;100.00
63907;BME280;50075;49.484;11.238;2022-11-13T03:25:25;98866.31;;;7.79;100.00
63907;BME280;50075;49.484;11.238;2022-11-13T03:27:50;98866.13;;;7.36;100.00
63907;BME280;50075;49.484;11.238;2022-11-13T03:30:16;98866.25;;;7.26;100.00
63907;BME280;50075;49.484;11.238;2022-11-13T03:32:41;98858.72;;;7.68;100.00
63907;BME280;50075;49.484;11.238;2022-11-13T03:35:07;98854.03;;;7.90;100.00
63907;BME280;50075;49.484;11.238;2022-11-13T03:37:33;98855.06;;;7.79;100.00
63907;BME280;50075;49.484;11.238;2022-11-13T03:39:58;98845.09;;;7.54;100.00
63907;BME280;50075;49.484;11.238;2022-11-13T03:42:23;98852.06;;;7.49;100.00
63907;BME280;50075;49.484;11.238;2022-11-13T03:44:49;98849.97;;;7.74;100.00
63907;BME280;50075;49.484;11.238;2022-11-13T03:47:14;98854.13;;;7.84;100.00
63907;BME280;50075;49.484;11.238;2022-11-13T03:49:39;98843.56;;;7.94;100.00
63907;BME280;50075;49.484;11.238;2022-11-13T03:52:05;98844.00;;;7.69;100.00
63907;BME280;50075;49.484;11.238;2022-11-13T03:54:30;98843.09;;;7.70;100.00
63907;BME280;50075;49.484;11.238;2022-11-13T03:56:56;98849.72;;;7.88;100.00
63907;BME280;50075;49.484;11.238;2022-11-13T03:59:21;98841.88;;;7.93;100.00
63907;BME280;50075;49.484;11.238;2022-11-13T04:01:47;98845.53;;;7.79;100.00
63907;BME280;50075;49.484;11.238;2022-11-13T04:04:12;98844.38;;;7.99;100.00
63907;BME280;50075;49.484;11.238;2022-11-13T04:06:38;98842.84;;;7.85;100.00
63907;BME280;50075;49.484;11.238;2022-11-13T04:09:03;98836.38;;;8.09;100.00
63907;BME280;50075;49.484;11.238;2022-11-13T04:11:28;98834.47;;;7.68;100.00
63907;BME280;50075;49.484;11.238;2022-11-13T04:13:54;98835.25;;;7.73;100.00
63907;BME280;50075;49.484;11.238;2022-11-13T04:16:19;98825.16;;;7.55;100.00
63907;BME280;50075;49.484;11.238;2022-11-13T04:18:44;98815.06;;;7.36;100.00
63907;BME280;50075;49.484;11.238;2022-11-13T04:21:10;98813.19;;;7.44;100.00
63907;BME280;50075;49.484;11.238;2022-11-13T04:23:35;98820.09;;;6.85;100.00
63907;BME280;50075;49.484;11.238;2022-11-13T04:26:00;98823.84;;;7.26;100.00
63907;BME280;50075;49.484;11.238;2022-11-13T04:28:26;98818.94;;;7.07;100.00
63907;BME280;50075;49.484;11.238;2022-11-13T04:30:52;98823.81;;;7.29;100.00
63907;BME280;50075;49.484;11.238;2022-11-13T04:33:18;98813.78;;;7.63;100.00
63907;BME280;50075;49.484;11.238;2022-11-13T04:35:43;98814.66;;;7.61;100.00
63907;BME280;50075;49.484;11.238;2022-11-13T04:38:15;98805.22;;;7.58;100.00
63907;BME280;50075;49.484;11.238;2022-11-13T04:40:41;98805.38;;;7.99;100.00
63907;BME280;50075;49.484;11.238;2022-11-13T04:43:06;98803.38;;;8.15;100.00
63907;BME280;50075;49.484;11.238;2022-11-13T04:45:32;98793.84;;;8.15;100.00
63907;BME280;50075;49.484;11.238;2022-11-13T04:47:57;98800.50;;;8.28;100.00
63907;BME280;50075;49.484;11.238;2022-11-13T04:50:23;98796.66;;;8.03;100.00
63907;BME280;50075;49.484;11.238;2022-11-13T04:52:49;98801.41;;;8.27;100.00
63907;BME280;50075;49.484;11.238;2022-11-13T04:55:14;98795.38;;;8.71;100.00
63907;BME280;50075;49.484;11.238;2022-11-13T04:57:40;98795.88;;;8.47;100.00
63907;BME280;50075;49.484;11.238;2022-11-13T05:00:07;98795.63;;;8.11;100.00
63907;BME280;50075;49.484;11.238;2022-11-13T05:02:33;98797.41;;;8.56;100.00
63907;BME280;50075;49.484;11.238;2022-11-13T05:04:59;98798.22;;;8.58;100.00
63907;BME280;50075;49.484;11.238;2022-11-13T05:07:24;98791.72;;;8.36;100.00
63907;BME280;50075;49.484;11.238;2022-11-13T05:09:53;98793.72;;;8.21;100.00
63907;BME280;50075;49.484;11.238;2022-11-13T05:12:19;98791.53;;;8.00;100.00
63907;BME280;50075;49.484;11.238;2022-11-13T05:14:45;98785.03;;;7.74;100.00
63907;BME280;50075;49.484;11.238;2022-11-13T05:17:11;98783.13;;;8.30;100.00
63907;BME280;50075;49.484;11.238;2022-11-13T05:19:36;98779.91;;;8.64;100.00
63907;BME280;50075;49.484;11.238;2022-11-13T05:22:02;98781.16;;;8.45;100.00
63907;BME280;50075;49.484;11.238;2022-11-13T05:24:28;98787.28;;;7.43;100.00
63907;BME280;50075;49.484;11.238;2022-11-13T05:26:53;98782.66;;;7.60;100.00
63907;BME280;50075;49.484;11.238;2022-11-13T05:29:19;98783.66;;;7.51;100.00
63907;BME280;50075;49.484;11.238;2022-11-13T05:31:45;98781.13;;;7.50;100.00
63907;BME280;50075;49.484;11.238;2022-11-13T05:34:10;98783.75;;;7.48;100.00
63907;BME280;50075;49.484;11.238;2022-11-13T05:36:36;98781.25;;;8.40;100.00
63907;BME280;50075;49.484;11.238;2022-11-13T05:39:02;98776.69;;;8.53;100.00
63907;BME280;50075;49.484;11.238;2022-11-13T05:41:27;98777.03;;;8.35;100.00
63907;BME280;50075;49.484;11.238;2022-11-13T05:43:52;98768.00;;;8.53;100.00
63907;BME280;50075;49.484;11.238;2022-11-13T05:46:20;98773.25;;;8.04;100.00
63907;BME280;50075;49.484;11.238;2022-11-13T05:48:50;98768.06;;;8.51;100.00
63907;BME280;50075;49.484;11.238;2022-11-13T05:51:21;98770.59;;;8.07;100.00
63907;BME280;50075;49.484;11.238;2022-11-13T05:53:46;98760.44;;;7.42;100.00
63907;BME280;50075;49.484;11.238;2022-11-13T05:56:15;98760.81;;;7.21;100.00
63907;BME280;50075;49.484;11.238;2022-11-13T05:58:42;98755.06;;;8.03;100.00
63907;BME280;50075;49.484;11.238;2022-11-13T06:03:33;98741.63;;;8.27;100.00
63907;BME280;50075;49.484;11.238;2022-11-13T06:05:58;98746.19;;;8.16;100.00
63907;BME280;50075;49.484;11.238;2022-11-13T06:08:24;98736.13;;;8.41;100.00
63907;BME280;50075;49.484;11.238;2022-11-13T06:10:50;98731.66;;;8.51;100.00
63907;BME280;50075;49.484;11.238;2022-11-13T06:13:15;98744.50;;;8.12;100.00
63907;BME280;50075;49.484;11.238;2022-11-13T06:15:40;98734.81;;;7.75;100.00
63907;BME280;50075;49.484;11.238;2022-11-13T06:18:06;98735.09;;;8.06;100.00
63907;BME280;50075;49.484;11.238;2022-11-13T06:20:34;98736.88;;;8.04;100.00
63907;BME280;50075;49.484;11.238;2022-11-13T06:22:59;98735.31;;;7.44;100.00
63907;BME280;50075;49.484;11.238;2022-11-13T06:25:26;98735.56;;;6.73;100.00
63907;BME280;50075;49.484;11.238;2022-11-13T06:27:51;98728.28;;;7.52;100.00
63907;BME280;50075;49.484;11.238;2022-11-13T06:30:17;98732.31;;;7.69;100.00
63907;BME280;50075;49.484;11.238;2022-11-13T06:32:43;98739.75;;;7.90;100.00
63907;BME280;50075;49.484;11.238;2022-11-13T06:35:08;98735.72;;;7.20;100.00
63907;BME280;50075;49.484;11.238;2022-11-13T06:37:33;98734.53;;;7.90;100.00
63907;BME280;50075;49.484;11.238;2022-11-13T06:39:59;98730.66;;;7.13;100.00
63907;BME280;50075;49.484;11.238;2022-11-13T06:42:24;98724.06;;;7.47;100.00
63907;BME280;50075;49.484;11.238;2022-11-13T06:44:49;98720.59;;;7.95;100.00
63907;BME280;50075;49.484;11.238;2022-11-13T06:47:15;98730.47;;;8.22;100.00
63907;BME280;50075;49.484;11.238;2022-11-13T06:49:40;98730.44;;;8.67;100.00
63907;BME280;50075;49.484;11.238;2022-11-13T06:52:05;98744.81;;;8.84;100.00
63907;BME280;50075;49.484;11.238;2022-11-13T06:54:31;98747.09;;;9.35;100.00
63907;BME280;50075;49.484;11.238;2022-11-13T06:56:57;98741.69;;;9.79;100.00
63907;BME280;50075;49.484;11.238;2022-11-13T06:59:22;98737.38;;;9.43;100.00
63907;BME280;50075;49.484;11.238;2022-11-13T07:01:49;98737.72;;;9.28;100.00
63907;BME280;50075;49.484;11.238;2022-11-13T07:04:14;98729.69;;;9.72;100.00
63907;BME280;50075;49.484;11.238;2022-11-13T07:06:40;98725.75;;;10.22;100.00
63907;BME280;50075;49.484;11.238;2022-11-13T07:09:05;98726.84;;;11.31;100.00
63907;BME280;50075;49.484;11.238;2022-11-13T07:11:30;98710.31;;;12.57;100.00
63907;BME280;50075;49.484;11.238;2022-11-13T07:13:56;98708.72;;;12.76;100.00
63907;BME280;50075;49.484;11.238;2022-11-13T07:16:21;98707.50;;;13.92;100.00
63907;BME280;50075;49.484;11.238;2022-11-13T07:18:53;98700.88;;;13.83;100.00
63907;BME280;50075;49.484;11.238;2022-11-13T07:21:19;98704.28;;;14.64;100.00
63907;BME280;50075;49.484;11.238;2022-11-13T07:23:46;98697.53;;;14.97;100.00
63907;BME280;50075;49.484;11.238;2022-11-13T07:26:12;98706.78;;;17.25;100.00
63907;BME280;50075;49.484;11.238;2022-11-13T07:28:38;98709.19;;;17.44;100.00
63907;BME280;50075;49.484;11.238;2022-11-13T07:31:04;98722.34;;;17.90;100.00
63907;BME280;50075;49.484;11.238;2022-11-13T07:33:29;98721.34;;;16.51;100.00
63907;BME280;50075;49.484;11.238;2022-11-13T07:35:55;98708.28;;;15.64;98.63
63907;BME280;50075;49.484;11.238;2022-11-13T07:38:21;98705.84;;;15.60;94.89
63907;BME280;50075;49.484;11.238;2022-11-13T07:40:47;98698.34;;;14.61;96.22
63907;BME280;50075;49.484;11.238;2022-11-13T07:43:12;98698.47;;;13.99;94.74
63907;BME280;50075;49.484;11.238;2022-11-13T07:45:37;98695.28;;;14.70;93.09
63907;BME280;50075;49.484;11.238;2022-11-13T07:48:03;98686.28;;;13.57;99.94
63907;BME280;50075;49.484;11.238;2022-11-13T07:50:33;98684.22;;;13.43;100.00
63907;BME280;50075;49.484;11.238;2022-11-13T07:53:01;98686.47;;;12.86;98.88
63907;BME280;50075;49.484;11.238;2022-11-13T07:55:27;98683.44;;;13.41;100.00
63907;BME280;50075;49.484;11.238;2022-11-13T07:57:56;98674.75;;;12.04;100.00
63907;BME280;50075;49.484;11.238;2022-11-13T08:00:23;98688.16;;;12.43;100.00
63907;BME280;50075;49.484;11.238;2022-11-13T08:02:49;98679.22;;;12.49;100.00
63907;BME280;50075;49.484;11.238;2022-11-13T08:05:15;98665.34;;;12.69;100.00
63907;BME280;50075;49.484;11.238;2022-11-13T08:07:40;98658.41;;;12.90;100.00
63907;BME280;50075;49.484;11.238;2022-11-13T08:10:06;98663.66;;;12.90;100.00
63907;BME280;50075;49.484;11.238;2022-11-13T08:12:32;98650.81;;;13.06;100.00
63907;BME280;50075;49.484;11.238;2022-11-13T08:14:57;98652.53;;;13.49;100.00
63907;BME280;50075;49.484;11.238;2022-11-13T08:17:22;98660.53;;;14.06;100.00
63907;BME280;50075;49.484;11.238;2022-11-13T08:19:48;98657.53;;;13.75;100.00
63907;BME280;50075;49.484;11.238;2022-11-13T08:22:13;98663.00;;;14.10;100.00
63907;BME280;50075;49.484;11.238;2022-11-13T08:24:38;98653.97;;;14.36;100.00
63907;BME280;50075;49.484;11.238;2022-11-13T08:27:05;98662.38;;;13.84;100.00
63907;BME280;50075;49.484;11.238;2022-11-13T08:29:30;98650.88;;;13.88;100.00
63907;BME280;50075;49.484;11.238;2022-11-13T08:31:56;98641.28;;;13.87;100.00
63907;BME280;50075;49.484;11.238;2022-11-13T08:34:21;98622.09;;;13.03;100.00
63907;BME280;50075;49.484;11.238;2022-11-13T08:36:47;98621.78;;;14.32;100.00
63907;BME280;50075;49.484;11.238;2022-11-13T08:39:12;98606.22;;;14.08;100.00
63907;BME280;50075;49.484;11.238;2022-11-13T08:41:38;98601.97;;;14.06;100.00
63907;BME280;50075;49.484;11.238;2022-11-13T08:44:04;98595.66;;;14.67;100.00
63907;BME280;50075;49.484;11.238;2022-11-13T08:46:29;98594.16;;;14.42;100.00
63907;BME280;50075;49.484;11.238;2022-11-13T08:48:55;98584.66;;;14.95;100.00
63907;BME280;50075;49.484;11.238;2022-11-13T08:51:20;98581.91;;;14.62;99.60
63907;BME280;50075;49.484;11.238;2022-11-13T08:53:45;98573.78;;;14.67;100.00
63907;BME280;50075;49.484;11.238;2022-11-13T08:56:11;98568.78;;;14.79;100.00
63907;BME280;50075;49.484;11.238;2022-11-13T08:58:36;98585.31;;;14.45;100.00
63907;BME280;50075;49.484;11.238;2022-11-13T09:01:02;98567.66;;;14.85;99.85
63907;BME280;50075;49.484;11.238;2022-11-13T09:03:28;98559.34;;;14.58;98.62
63907;BME280;50075;49.484;11.238;2022-11-13T09:05:53;98545.31;;;15.29;98.21
63907;BME280;50075;49.484;11.238;2022-11-13T09:08:19;98560.84;;;15.16;96.56
63907;BME280;50075;49.484;11.238;2022-11-13T09:10:44;98561.88;;;15.13;93.68
63907;BME280;50075;49.484;11.238;2022-11-13T09:13:10;98555.84;;;14.76;92.60
63907;BME280;50075;49.484;11.238;2022-11-13T09:15:37;98553.75;;;14.46;96.22
63907;BME280;50075;49.484;11.238;2022-11-13T09:18:03;98562.00;;;15.10;91.80
63907;BME280;50075;49.484;11.238;2022-11-13T09:20:31;98574.69;;;15.37;88.70
63907;BME280;50075;49.484;11.238;2022-11-13T09:23:06;98571.88;;;15.40;88.58
63907;BME280;50075;49.484;11.238;2022-11-13T09:25:34;98563.41;;;15.17;92.15
63907;BME280;50075;49.484;11.238;2022-11-13T09:28:00;98566.09;;;14.81;87.53
63907;BME280;50075;49.484;11.238;2022-11-13T09:30:27;98548.59;;;15.16;87.88
63907;BME280;50075;49.484;11.238;2022-11-13T09:32:54;98568.19;;;15.27;83.45
63907;BME280;50075;49.484;11.238;2022-11-13T09:35:22;98559.31;;;15.29;82.41
63907;BME280;50075;49.484;11.238;2022-11-13T09:38:07;98590.78;;;15.13;81.28
63907;BME280;50075;49.484;11.238;2022-11-13T09:40:49;98586.97;;;15.36;82.75
63907;BME280;50075;49.484;11.238;2022-11-13T09:45:48;98565.94;;;15.87;80.26
63907;BME280;50075;49.484;11.238;2022-11-13T09:48:36;98570.53;;;16.63;76.15
63907;BME280;50075;49.484;11.238;2022-11-13T09:51:12;98580.50;;;16.26;77.36
63907;BME280;50075;49.484;11.238;2022-11-13T09:53:39;98590.38;;;16.38;76.12
63907;BME280;50075;49.484;11.238;2022-11-13T09:56:18;98581.75;;;15.70;77.85
63907;BME280;50075;49.484;11.238;2022-11-13T09:58:53;98582.34;;;15.92;78.65
63907;BME280;50075;49.484;11.238;2022-11-13T10:04:12;98577.34;;;16.83;74.37
63907;BME280;50075;49.484;11.238;2022-11-13T10:06:48;98579.81;;;16.70;75.02
63907;BME280;50075;49.484;11.238;2022-11-13T10:11:55;98568.50;;;16.68;73.92
63907;BME280;50075;49.484;11.238;2022-11-13T10:14:28;98566.28;;;17.23;71.72
63907;BME280;50075;49.484;11.238;2022-11-13T10:17:01;98567.47;;;16.87;71.23
63907;BME280;50075;49.484;11.238;2022-11-13T10:19:44;98558.19;;;16.80;70.97
63907;BME280;50075;49.484;11.238;2022-11-13T10:25:18;98561.72;;;17.10;68.57
63907;BME280;50075;49.484;11.238;2022-11-13T10:27:53;98567.22;;;17.22;69.07
63907;BME280;50075;49.484;11.238;2022-11-13T10:30:19;98556.94;;;17.17;68.33
63907;BME280;50075;49.484;11.238;2022-11-13T10:32:48;98549.38;;;17.56;77.63
63907;BME280;50075;49.484;11.238;2022-11-13T10:40:28;98550.03;;;17.00;69.71
63907;BME280;50075;49.484;11.238;2022-11-13T10:43:13;98533.13;;;17.33;69.05
63907;BME280;50075;49.484;11.238;2022-11-13T10:45:52;98529.16;;;18.26;79.28
63907;BME280;50075;49.484;11.238;2022-11-13T10:48:20;98521.31;;;17.69;68.13
63907;BME280;50075;49.484;11.238;2022-11-13T10:51:14;98519.13;;;17.61;67.71
63907;BME280;50075;49.484;11.238;2022-11-13T10:53:43;98518.09;;;17.21;67.89
63907;BME280;50075;49.484;11.238;2022-11-13T10:56:31;98506.25;;;17.85;65.50
63907;BME280;50075;49.484;11.238;2022-11-13T10:59:13;98488.09;;;18.90;67.21
63907;BME280;50075;49.484;11.238;2022-11-13T11:04:09;98472.63;;;18.16;67.02
63907;BME280;50075;49.484;11.238;2022-11-13T11:06:38;98478.28;;;18.64;65.16
63907;BME280;50075;49.484;11.238;2022-11-13T11:09:18;98482.28;;;17.74;66.74
63907;BME280;50075;49.484;11.238;2022-11-13T11:14:53;98488.69;;;17.99;65.56
63907;BME280;50075;49.484;11.238;2022-11-13T11:17:41;98479.34;;;18.07;66.37
63907;BME280;50075;49.484;11.238;2022-11-13T11:20:44;98469.53;;;18.37;65.36
63907;BME280;50075;49.484;11.238;2022-11-13T11:23:38;98464.59;;;18.18;66.37
63907;BME280;50075;49.484;11.238;2022-11-13T11:26:15;98453.63;;;17.97;68.02
63907;BME280;50075;49.484;11.238;2022-11-13T11:28:46;98456.63;;;18.05;67.90
63907;BME280;50075;49.484;11.238;2022-11-13T11:31:30;98458.69;;;18.14;65.56
63907;BME280;50075;49.484;11.238;2022-11-13T11:36:40;98443.97;;;18.10;66.22
63907;BME280;50075;49.484;11.238;2022-11-13T11:45:06;98414.09;;;18.09;67.32
63907;BME280;50075;49.484;11.238;2022-11-13T11:47:34;98415.56;;;18.81;67.21
63907;BME280;50075;49.484;11.238;2022-11-13T11:50:00;98403.63;;;18.08;67.99
63907;BME280;50075;49.484;11.238;2022-11-13T12:01:07;98384.03;;;17.85;65.97
63907;BME280;50075;49.484;11.238;2022-11-13T12:11:26;98371.56;;;19.05;63.17
63907;BME280;50075;49.484;11.238;2022-11-13T12:14:09;98369.97;;;18.11;62.76
63907;BME280;50075;49.484;11.238;2022-11-13T12:19:41;98358.06;;;17.91;64.25
63907;BME280;50075;49.484;11.238;2022-11-13T12:30:16;98357.56;;;18.39;64.33
63907;BME280;50075;49.484;11.238;2022-11-13T12:33:07;98354.72;;;18.02;65.44
63907;BME280;50075;49.484;11.238;2022-11-13T12:35:35;98347.22;;;19.00;64.46
63907;BME280;50075;49.484;11.238;2022-11-13T12:38:16;98342.38;;;18.68;64.55
63907;BME280;50075;49.484;11.238;2022-11-13T12:41:01;98335.59;;;18.77;65.48
63907;BME280;50075;49.484;11.238;2022-11-13T12:43:56;98335.84;;;18.87;64.52
63907;BME280;50075;49.484;11.238;2022-11-13T12:46:38;98336.41;;;18.26;66.35
63907;BME280;50075;49.484;11.238;2022-11-13T12:52:03;98331.00;;;18.81;65.24
63907;BME280;50075;49.484;11.238;2022-11-13T12:54:36;98328.50;;;18.78;66.64
63907;BME280;50075;49.484;11.238;2022-11-13T12:57:06;98332.25;;;18.88;65.64
63907;BME280;50075;49.484;11.238;2022-11-13T12:59:42;98333.50;;;18.44;66.15
63907;BME280;50075;49.484;11.238;2022-11-13T13:09:46;98312.88;;;18.36;66.88
63907;BME280;50075;49.484;11.238;2022-11-13T13:12:39;98307.38;;;18.78;67.59
63907;BME280;50075;49.484;11.238;2022-11-13T13:15:28;98301.75;;;18.18;68.22
63907;BME280;50075;49.484;11.238;2022-11-13T13:18:37;98303.38;;;18.46;67.23
63907;BME280;50075;49.484;11.238;2022-11-13T13:21:09;98296.50;;;18.44;67.33
63907;BME280;50075;49.484;11.238;2022-11-13T13:23:43;98291.28;;;17.77;68.33
63907;BME280;50075;49.484;11.238;2022-11-13T13:28:39;98293.31;;;18.26;67.51
63907;BME280;50075;49.484;11.238;2022-11-13T13:37:30;98291.34;;;17.89;66.84
63907;BME280;50075;49.484;11.238;2022-11-13T13:43:18;98280.81;;;18.02;66.32
63907;BME280;50075;49.484;11.238;2022-11-13T13:48:27;98276.16;;;17.93;67.30
63907;BME280;50075;49.484;11.238;2022-11-13T13:50:54;98282.69;;;17.87;67.15
63907;BME280;50075;49.484;11.238;2022-11-13T13:53:29;98278.50;;;17.98;67.44
63907;BME280;50075;49.484;11.238;2022-11-13T13:55:57;98275.81;;;17.58;66.59
63907;BME280;50075;49.484;11.238;2022-11-13T13:58:29;98273.78;;;18.28;66.52
63907;BME280;50075;49.484;11.238;2022-11-13T14:01:01;98272.41;;;18.48;65.81
63907;BME280;50075;49.484;11.238;2022-11-13T14:03:27;98270.50;;;18.50;66.17
63907;BME280;50075;49.484;11.238;2022-11-13T14:05:54;98270.28;;;18.66;65.77
63907;BME280;50075;49.484;11.238;2022-11-13T14:08:25;98267.75;;;18.14;68.56
63907;BME280;50075;49.484;11.238;2022-11-13T14:10:51;98267.50;;;17.91;70.06
63907;BME280;50075;49.484;11.238;2022-11-13T14:13:25;98266.56;;;17.65;71.60
63907;BME280;50075;49.484;11.238;2022-11-13T14:18:26;98259.34;;;17.81;71.40
63907;BME280;50075;49.484;11.238;2022-11-13T14:20:56;98261.44;;;17.49;72.22
63907;BME280;50075;49.484;11.238;2022-11-13T14:23:34;98254.66;;;17.72;72.42
63907;BME280;50075;49.484;11.238;2022-11-13T14:26:02;98236.34;;;17.56;73.46
63907;BME280;50075;49.484;11.238;2022-11-13T14:28:32;98242.97;;;17.22;74.09